createdAt,value
2023-03-26T00:02:23.585Z,99913.25
2023-03-26T00:05:25.792Z,99911.13
2023-03-26T00:08:27.466Z,99918.03
2023-03-26T00:11:29.661Z,99931.91
2023-03-26T00:14:32.777Z,99933.72
2023-03-26T00:17:34.634Z,99934.59
2023-03-26T00:20:38.385Z,99929.53
2023-03-26T00:23:41.624Z,99923.66
2023-03-26T00:26:44.788Z,99920.06
2023-03-26T00:29:48.282Z,99917.41
2023-03-26T00:32:53.348Z,99918.63
2023-03-26T00:35:59.097Z,99917.19
2023-03-26T00:39:01.292Z,99910.06
2023-03-26T00:42:07.288Z,99908.28
2023-03-26T00:45:09.281Z,99909.19
2023-03-26T00:48:11.680Z,99916.91
2023-03-26T00:51:17.674Z,99911.41
2023-03-26T00:54:19.344Z,99919.66
2023-03-26T00:57:34.556Z,99914.94
2023-03-26T01:00:43.205Z,99907.88
2023-03-26T01:04:00.829Z,99908.44
2023-03-26T01:07:22.803Z,99912.59
2023-03-26T01:10:24.448Z,99903.97
2023-03-26T01:13:26.131Z,99903.88
2023-03-26T01:16:33.333Z,99906.12
2023-03-26T01:19:56.500Z,99895.06
2023-03-26T01:23:06.427Z,99897.06
2023-03-26T01:26:24.803Z,99897.06
2023-03-26T01:29:49.482Z,99887.34
2023-03-26T01:33:16.326Z,99893.91
2023-03-26T01:36:40.059Z,99885.34
2023-03-26T01:39:56.982Z,99885.44
2023-03-26T01:43:23.202Z,99886.75
2023-03-26T01:46:27.213Z,99881.09
2023-03-26T01:49:30.064Z,99878.69
2023-03-26T01:52:31.800Z,99891.44
2023-03-26T01:55:59.551Z,99894.16
2023-03-26T01:59:08.776Z,99889.84
2023-03-26T02:02:17.159Z,99897.81
2023-03-26T02:05:26.479Z,99887.69
2023-03-26T02:08:41.401Z,99883.72
2023-03-26T02:11:45.014Z,99886.91
2023-03-26T02:14:46.799Z,99891.41
2023-03-26T02:17:49.744Z,99883.31
2023-03-26T02:20:55.799Z,99896.19
2023-03-26T02:24:03.373Z,99894.41
2023-03-26T02:27:07.848Z,99894.72
2023-03-26T02:30:13.476Z,99896.63
2023-03-26T02:33:15.457Z,99902.44
2023-03-26T02:36:18.543Z,99891.41
2023-03-26T02:39:20.919Z,99891.78
2023-03-26T02:42:22.691Z,99886.47
2023-03-26T02:45:24.398Z,99890.00
2023-03-26T02:48:26.287Z,99889.09
2023-03-26T02:51:28.919Z,99897.69
2023-03-26T02:54:30.551Z,99884.94
2023-03-26T02:57:32.210Z,99895.78
2023-03-26T03:00:35.362Z,99896.06
2023-03-26T03:03:37.902Z,99896.53
2023-03-26T03:06:40.565Z,99901.91
2023-03-26T03:09:42.286Z,99888.44
2023-03-26T03:12:43.957Z,99894.13
2023-03-26T03:15:45.587Z,99892.72
2023-03-26T03:18:54.547Z,99892.75
2023-03-26T03:21:56.630Z,99892.13
2023-03-26T03:24:59.995Z,99900.63
2023-03-26T03:28:02.286Z,99890.94
2023-03-26T03:31:05.295Z,99902.59
2023-03-26T03:34:07.038Z,99894.97
2023-03-26T03:37:08.694Z,99896.81
2023-03-26T03:40:11.101Z,99892.09
2023-03-26T03:43:12.776Z,99890.78
2023-03-26T03:46:14.490Z,99883.34
2023-03-26T03:49:16.164Z,99883.47
2023-03-26T03:52:18.263Z,99882.03
2023-03-26T03:55:19.921Z,99880.50
2023-03-26T03:58:23.390Z,99874.28
2023-03-26T04:01:25.273Z,99885.78
2023-03-26T04:04:26.974Z,99894.13
2023-03-26T04:07:32.929Z,99892.91
2023-03-26T04:10:34.620Z,99896.88
2023-03-26T04:13:36.452Z,99904.66
2023-03-26T04:16:38.158Z,99903.34
2023-03-26T04:19:40.591Z,99906.88
2023-03-26T04:22:43.885Z,99902.47
2023-03-26T04:25:49.481Z,99910.81
2023-03-26T04:28:54.375Z,99911.63
2023-03-26T04:32:06.432Z,99903.31
2023-03-26T04:35:08.741Z,99899.97
2023-03-26T04:38:11.828Z,99912.75
2023-03-26T04:41:14.751Z,99917.75
2023-03-26T04:44:17.185Z,99917.16
2023-03-26T04:47:18.986Z,99909.41
2023-03-26T04:50:21.014Z,99910.28
2023-03-26T04:53:24.260Z,99893.72
2023-03-26T04:56:28.899Z,99903.81
2023-03-26T04:59:35.210Z,99912.53
2023-03-26T05:02:40.056Z,99907.25
2023-03-26T05:05:41.962Z,99901.72
2023-03-26T05:08:43.594Z,99915.56
2023-03-26T05:11:45.446Z,99910.53
2023-03-26T05:14:47.088Z,99908.41
2023-03-26T05:17:48.833Z,99920.66
2023-03-26T05:20:50.756Z,99919.84
2023-03-26T05:23:52.415Z,99923.28
2023-03-26T05:26:54.215Z,99932.84
2023-03-26T05:30:01.284Z,99925.41
2023-03-26T05:33:04.482Z,99926.66
2023-03-26T05:36:13.332Z,99929.88
2023-03-26T05:39:15.199Z,99918.22
2023-03-26T05:42:16.850Z,99915.56
2023-03-26T05:45:18.533Z,99918.44
2023-03-26T05:48:21.682Z,99924.37
2023-03-26T05:51:23.560Z,99921.50
2023-03-26T05:54:25.237Z,99917.94
2023-03-26T05:57:30.194Z,99922.56
2023-03-26T06:00:31.885Z,99917.28
2023-03-26T06:03:38.717Z,99920.66
2023-03-26T06:06:40.532Z,99922.50
2023-03-26T06:09:42.384Z,99918.88
2023-03-26T06:12:44.009Z,99924.44
2023-03-26T06:15:45.737Z,99920.28
2023-03-26T06:18:47.572Z,99911.59
2023-03-26T06:22:01.788Z,99905.09
2023-03-26T06:25:03.578Z,99899.09
2023-03-26T06:28:06.113Z,99911.06
2023-03-26T06:31:07.808Z,99906.47
2023-03-26T06:34:09.581Z,99911.56
2023-03-26T06:37:11.290Z,99906.69
2023-03-26T06:40:14.778Z,99911.19
2023-03-26T06:43:17.557Z,99924.37
2023-03-26T06:46:21.248Z,99915.34
2023-03-26T06:49:22.997Z,99917.03
2023-03-26T06:52:24.703Z,99920.34
2023-03-26T06:55:27.256Z,99912.84
2023-03-26T06:58:29.758Z,99918.06
2023-03-26T07:01:31.556Z,99923.09
2023-03-26T07:04:33.227Z,99914.06
2023-03-26T07:07:35.122Z,99906.72
2023-03-26T07:10:47.592Z,99902.84
2023-03-26T07:13:49.275Z,99901.09
2023-03-26T07:16:51.887Z,99901.69
2023-03-26T07:19:54.240Z,99906.72
2023-03-26T07:22:56.560Z,99901.13
2023-03-26T07:25:58.439Z,99905.56
2023-03-26T07:29:07.005Z,99901.13
2023-03-26T07:32:23.723Z,99901.34
2023-03-26T07:35:40.563Z,99906.22
2023-03-26T07:38:54.366Z,99907.84
2023-03-26T07:42:01.775Z,99906.97
2023-03-26T07:45:19.791Z,99903.72
2023-03-26T07:48:27.429Z,99908.41
2023-03-26T07:51:29.486Z,99896.31
2023-03-26T07:54:31.438Z,99902.25
2023-03-26T07:57:36.026Z,99904.53
2023-03-26T08:00:45.403Z,99911.63
2023-03-26T08:03:55.886Z,99910.75
2023-03-26T08:07:07.205Z,99899.75
2023-03-26T08:10:15.067Z,99907.38
2023-03-26T08:13:22.341Z,99909.75
2023-03-26T08:17:02.483Z,99902.66
2023-03-26T08:20:34.998Z,99906.00
2023-03-26T08:24:22.222Z,99903.50
2023-03-26T08:27:41.449Z,99901.09
2023-03-26T08:30:44.530Z,99910.06
2023-03-26T08:33:46.215Z,99913.31
2023-03-26T08:36:47.868Z,99906.12
2023-03-26T08:39:49.496Z,99915.50
2023-03-26T08:43:23.452Z,99913.59
2023-03-26T08:46:34.245Z,99910.44
2023-03-26T08:50:13.674Z,99909.56
2023-03-26T08:53:43.205Z,99910.22
2023-03-26T08:57:03.101Z,99907.06
2023-03-26T09:00:43.368Z,99912.16
2023-03-26T09:04:17.794Z,99892.56
2023-03-26T09:07:28.268Z,99899.25
2023-03-26T09:10:50.711Z,99896.75
2023-03-26T09:14:16.916Z,99891.09
2023-03-26T09:17:27.861Z,99891.09
2023-03-26T09:20:50.495Z,99894.00
2023-03-26T09:24:19.448Z,99891.94
2023-03-26T09:27:37.681Z,99889.22
2023-03-26T09:31:06.396Z,99883.94
2023-03-26T09:34:16.779Z,99889.84
2023-03-26T09:37:56.705Z,99895.50
2023-03-26T09:41:13.947Z,99890.84
2023-03-26T09:45:01.087Z,99887.19
2023-03-26T09:48:38.090Z,99881.00
2023-03-26T09:51:52.179Z,99873.81
2023-03-26T09:55:09.049Z,99867.50
2023-03-26T09:58:25.789Z,99864.03
2023-03-26T10:01:32.511Z,99862.03
2023-03-26T10:04:42.156Z,99854.72
2023-03-26T10:08:03.404Z,99857.09
2023-03-26T10:11:28.016Z,99853.22
2023-03-26T10:14:44.292Z,99844.09
2023-03-26T10:18:27.428Z,99841.34
2023-03-26T10:21:46.247Z,99835.63
2023-03-26T10:24:59.931Z,99832.22
2023-03-26T10:28:37.082Z,99825.22
2023-03-26T10:31:59.962Z,99817.37
2023-03-26T10:35:20.539Z,99813.06
2023-03-26T10:38:34.472Z,99807.78
2023-03-26T10:41:54.204Z,99790.97
2023-03-26T10:45:24.885Z,99790.16
2023-03-26T10:49:01.054Z,99777.06
2023-03-26T10:52:06.802Z,99778.81
2023-03-26T10:55:15.699Z,99776.16
2023-03-26T10:58:48.267Z,99758.59
2023-03-26T11:02:10.159Z,99763.94
2023-03-26T11:05:24.032Z,99749.00
2023-03-26T11:08:39.000Z,99749.75
2023-03-26T11:11:48.703Z,99745.53
2023-03-26T11:15:01.602Z,99743.00
2023-03-26T11:18:20.812Z,99748.19
2023-03-26T11:21:43.336Z,99749.87
2023-03-26T11:24:51.386Z,99755.16
2023-03-26T11:28:16.039Z,99742.84
2023-03-26T11:31:42.611Z,99746.34
2023-03-26T11:35:04.320Z,99737.69
2023-03-26T11:38:29.053Z,99735.00
2023-03-26T11:41:33.869Z,99730.56
2023-03-26T11:44:43.070Z,99726.06
2023-03-26T11:47:55.844Z,99719.87
2023-03-26T11:51:10.594Z,99733.44
2023-03-26T11:54:13.715Z,99732.97
2023-03-26T11:57:22.731Z,99730.53
2023-03-26T12:00:27.774Z,99715.88
2023-03-26T12:03:30.435Z,99716.53
2023-03-26T12:06:33.205Z,99712.94
2023-03-26T12:09:35.784Z,99704.56
2023-03-26T12:12:40.929Z,99695.34
2023-03-26T12:15:44.258Z,99687.16
2023-03-26T12:18:57.563Z,99682.09
2023-03-26T12:21:59.418Z,99672.53
2023-03-26T12:25:03.633Z,99663.75
2023-03-26T12:28:18.253Z,99664.97
2023-03-26T12:31:20.278Z,99668.50
2023-03-26T12:34:30.765Z,99655.44
2023-03-26T12:37:44.724Z,99646.59
2023-03-26T12:40:47.175Z,99635.03
2023-03-26T12:44:50.585Z,99627.03
2023-03-26T12:47:57.447Z,99626.22
2023-03-26T12:50:42.811Z,99615.47
2023-03-26T12:54:03.330Z,99608.59
2023-03-26T12:57:26.517Z,99618.88
2023-03-26T13:00:55.713Z,99599.34
2023-03-26T13:04:07.128Z,99599.91
2023-03-26T13:07:34.125Z,99597.44
2023-03-26T13:11:00.545Z,99589.28
2023-03-26T13:14:31.757Z,99580.72
2023-03-26T13:18:03.761Z,99583.66
2023-03-26T13:21:17.197Z,99572.13
2023-03-26T13:24:50.706Z,99571.22
2023-03-26T13:28:11.187Z,99565.16
2023-03-26T13:31:33.756Z,99565.28
2023-03-26T13:35:06.343Z,99546.91
2023-03-26T13:38:18.538Z,99544.25
2023-03-26T13:41:32.706Z,99545.13
2023-03-26T13:45:05.728Z,99528.53
2023-03-26T13:48:17.268Z,99530.16
2023-03-26T13:51:28.979Z,99529.84
2023-03-26T13:54:36.294Z,99528.37
2023-03-26T13:57:53.536Z,99514.53
2023-03-26T14:00:55.405Z,99514.53
2023-03-26T14:04:25.962Z,99505.81
2023-03-26T14:07:39.286Z,99505.78
2023-03-26T14:10:46.169Z,99497.03
2023-03-26T14:13:56.730Z,99500.19
2023-03-26T14:17:05.886Z,99496.63
2023-03-26T14:20:24.167Z,99487.12
2023-03-26T14:23:31.151Z,99472.97
2023-03-26T14:27:06.150Z,99484.19
2023-03-26T14:30:17.508Z,99469.59
2023-03-26T14:33:28.192Z,99457.50
2023-03-26T14:36:51.244Z,99462.78
2023-03-26T14:40:21.166Z,99457.34
2023-03-26T14:43:53.410Z,99444.56
2023-03-26T14:47:18.517Z,99440.44
2023-03-26T14:50:47.264Z,99443.09
2023-03-26T14:53:53.436Z,99447.25
2023-03-26T14:57:10.845Z,99434.53
2023-03-26T15:00:40.765Z,99422.91
2023-03-26T15:04:14.885Z,99421.97
2023-03-26T15:08:02.086Z,99420.81
2023-03-26T15:11:40.446Z,99406.66
2023-03-26T15:14:51.105Z,99406.09
2023-03-26T15:18:28.576Z,99398.03
2023-03-26T15:22:19.553Z,99408.03
2023-03-26T15:26:00.288Z,99399.44
2023-03-26T15:29:37.711Z,99396.28
2023-03-26T15:32:52.809Z,99383.91
2023-03-26T15:36:23.125Z,99376.66
2023-03-26T15:39:59.226Z,99366.03
2023-03-26T15:43:15.955Z,99370.31
2023-03-26T15:46:40.624Z,99360.66
2023-03-26T15:49:59.202Z,99360.63
2023-03-26T15:53:36.868Z,99359.72
2023-03-26T15:56:50.103Z,99350.34
2023-03-26T16:00:12.756Z,99344.31
2023-03-26T16:03:40.289Z,99346.22
2023-03-26T16:06:56.157Z,99338.44
2023-03-26T16:09:58.320Z,99338.56
2023-03-26T16:13:38.258Z,99340.31
2023-03-26T16:16:54.568Z,99337.75
2023-03-26T16:20:23.445Z,99331.66
2023-03-26T16:23:47.957Z,99328.25
2023-03-26T16:27:09.297Z,99328.28
2023-03-26T16:30:33.227Z,99323.03
2023-03-26T16:33:39.778Z,99319.59
2023-03-26T16:36:50.083Z,99310.00
2023-03-26T16:39:52.687Z,99305.66
2023-03-26T16:43:19.924Z,99296.09
2023-03-26T16:46:56.833Z,99292.56
2023-03-26T16:50:19.417Z,99287.31
2023-03-26T16:53:33.198Z,99275.13
2023-03-26T16:56:38.149Z,99277.69
2023-03-26T17:00:05.824Z,99276.81
2023-03-26T17:03:33.463Z,99279.16
2023-03-26T17:07:14.319Z,99268.78
2023-03-26T17:10:31.930Z,99261.78
2023-03-26T17:14:01.555Z,99267.00
2023-03-26T17:17:26.890Z,99270.44
2023-03-26T17:20:44.506Z,99269.41
2023-03-26T17:24:06.340Z,99268.50
2023-03-26T17:27:58.990Z,99269.25
2023-03-26T17:31:02.528Z,99273.56
2023-03-26T17:34:40.288Z,99274.38
2023-03-26T17:37:46.239Z,99275.06
2023-03-26T17:41:00.650Z,99274.09
2023-03-26T17:44:44.619Z,99274.69
2023-03-26T17:48:10.930Z,99273.81
2023-03-26T17:51:47.545Z,99275.38
2023-03-26T17:54:56.654Z,99277.06
2023-03-26T17:58:15.115Z,99277.94
2023-03-26T18:01:32.463Z,99270.00
2023-03-26T18:04:39.468Z,99263.84
2023-03-26T18:08:14.002Z,99254.41
2023-03-26T18:11:38.367Z,99261.22
2023-03-26T18:14:59.394Z,99264.66
2023-03-26T18:18:31.391Z,99261.16
2023-03-26T18:21:38.826Z,99259.16
2023-03-26T18:24:42.313Z,99253.87
2023-03-26T18:27:45.289Z,99246.72
2023-03-26T18:30:49.600Z,99240.66
2023-03-26T18:33:59.190Z,99238.91
2023-03-26T18:37:23.605Z,99243.00
2023-03-26T18:40:33.390Z,99247.41
2023-03-26T18:43:44.130Z,99243.00
2023-03-26T18:46:48.654Z,99242.69
2023-03-26T18:49:56.243Z,99241.00
2023-03-26T18:53:01.140Z,99238.53
2023-03-26T18:56:38.550Z,99238.69
2023-03-26T18:59:45.960Z,99242.62
2023-03-26T19:03:02.890Z,99241.97
2023-03-26T19:06:10.390Z,99239.53
2023-03-26T19:09:30.237Z,99233.69
2023-03-26T19:12:35.830Z,99238.06
2023-03-26T19:15:39.736Z,99230.94
2023-03-26T19:18:44.309Z,99228.31
2023-03-26T19:21:47.498Z,99218.00
2023-03-26T19:24:55.928Z,99216.34
2023-03-26T19:27:58.804Z,99200.78
2023-03-26T19:31:32.284Z,99197.38
2023-03-26T19:34:41.011Z,99197.31
2023-03-26T19:37:52.167Z,99189.53
2023-03-26T19:40:59.570Z,99179.94
2023-03-26T19:44:07.180Z,99179.88
2023-03-26T19:47:43.178Z,99176.38
2023-03-26T19:51:05.390Z,99173.78
2023-03-26T19:54:16.774Z,99172.84
2023-03-26T19:57:19.706Z,99159.81
2023-03-26T20:00:22.130Z,99155.37
2023-03-26T20:03:30.986Z,99147.59
2023-03-26T20:06:43.742Z,99143.31
2023-03-26T20:09:54.274Z,99139.84
2023-03-26T20:12:56.739Z,99130.31
2023-03-26T20:16:13.726Z,99123.38
2023-03-26T20:19:16.246Z,99120.75
2023-03-26T20:22:23.681Z,99122.47
2023-03-26T20:25:34.579Z,99112.84
2023-03-26T20:28:47.286Z,99100.66
2023-03-26T20:31:52.316Z,99096.28
2023-03-26T20:34:55.281Z,99091.09
2023-03-26T20:37:57.521Z,99079.78
2023-03-26T20:40:59.688Z,99071.16
2023-03-26T20:44:04.730Z,99072.84
2023-03-26T20:47:07.995Z,99059.84
2023-03-26T20:50:14.413Z,99050.22
2023-03-26T20:53:16.854Z,99038.94
2023-03-26T20:56:20.682Z,99030.25
2023-03-26T20:59:26.608Z,99028.53
2023-03-26T21:02:28.901Z,99018.97
2023-03-26T21:05:30.731Z,99016.38
2023-03-26T21:08:35.821Z,99008.53
2023-03-26T21:12:01.821Z,99000.72
2023-03-26T21:15:10.335Z,98988.56
2023-03-26T21:18:18.974Z,98999.00
2023-03-26T21:21:21.412Z,98991.12
2023-03-26T21:24:29.643Z,98985.00
2023-03-26T21:27:38.014Z,98991.94
2023-03-26T21:30:40.052Z,98987.50
2023-03-26T21:33:42.633Z,98987.37
2023-03-26T21:36:44.569Z,98981.13
2023-03-26T21:39:46.534Z,98978.41
2023-03-26T21:42:54.307Z,98981.81
2023-03-26T21:45:57.429Z,98989.50
2023-03-26T21:48:59.448Z,98979.94
2023-03-26T21:52:01.365Z,98978.09
2023-03-26T21:55:05.324Z,98975.38
2023-03-26T21:58:36.101Z,98976.22
2023-03-26T22:01:37.702Z,98980.50
2023-03-26T22:04:50.006Z,98976.19
2023-03-26T22:08:00.504Z,98981.53
2023-03-26T22:11:02.216Z,98985.19
2023-03-26T22:14:05.025Z,98978.28
2023-03-26T22:17:07.033Z,98981.69
2023-03-26T22:20:13.827Z,98980.25
2023-03-26T22:23:16.699Z,98987.13
2023-03-26T22:26:26.101Z,99001.63
2023-03-26T22:29:28.035Z,99004.25
2023-03-26T22:32:32.882Z,98998.97
2023-03-26T22:35:34.906Z,99001.03
2023-03-26T22:38:36.757Z,98991.91
2023-03-26T22:41:39.115Z,98994.06
2023-03-26T22:44:40.966Z,98977.47
2023-03-26T22:47:42.716Z,98972.66
2023-03-26T22:50:44.371Z,98976.12
2023-03-26T22:53:46.118Z,98981.66
2023-03-26T22:56:48.198Z,98975.34
2023-03-26T22:59:50.036Z,98981.94
2023-03-26T23:02:52.084Z,98974.81
2023-03-26T23:05:58.770Z,98975.03
2023-03-26T23:09:01.328Z,98973.53
2023-03-26T23:12:04.369Z,98969.09
2023-03-26T23:15:06.643Z,98968.09
2023-03-26T23:18:08.354Z,98966.94
2023-03-26T23:21:28.045Z,98962.75
2023-03-26T23:24:30.150Z,98961.66
2023-03-26T23:27:32.993Z,98959.03
2023-03-26T23:30:35.710Z,98954.75
2023-03-26T23:33:39.329Z,98954.47
2023-03-26T23:36:42.337Z,98957.78
2023-03-26T23:39:46.738Z,98961.12
2023-03-26T23:42:49.606Z,98968.81
2023-03-26T23:45:52.283Z,98974.09
2023-03-26T23:48:55.094Z,98972.34
2023-03-26T23:51:56.828Z,98968.53
2023-03-26T23:54:59.911Z,98967.31
2023-03-26T23:58:02.648Z,98951.81
